Time;durP1;ratioP1;P1;durP2;ratioP2;P2;SDS_P1;SDS_P2;PMS_P1;PMS_P2;Temp;Humidity;BMP_temperature;BMP_pressure;BME280_temperature;BME280_humidity;BME280_pressure;Samples;Min_cycle;Max_cycle;Signal;HPM_P1;HPM_P2
2023/01/04 00:01:06;;;;;;;19.23;12.25;;;;;;;;;;5095302;28;20059;-88
2023/01/04 00:03:34;;;;;;;19.40;12.43;;;;;;;;;;5095232;28;20055;-88
2023/01/04 00:06:02;;;;;;;12.00;8.50;;;;;;;;;;5094985;28;20109;-88
2023/01/04 00:08:30;;;;;;;14.27;8.52;;;;;;;;;;5094736;28;20154;-88
2023/01/04 00:11:01;;;;;;;12.05;8.43;;;;;;;;;;5095127;28;20135;-89
2023/01/04 00:13:29;;;;;;;12.57;8.13;;;;;;;;;;5094463;28;20465;-89
2023/01/04 00:15:57;;;;;;;8.57;6.28;;;;;;;;;;5094849;28;20056;-88
2023/01/04 00:18:34;;;;;;;12.68;8.40;;;;;;;;;;5095169;28;20475;-89
2023/01/04 00:21:07;;;;;;;12.10;8.18;;;;;;;;;;5094971;28;20447;-88
2023/01/04 00:23:34;;;;;;;10.13;7.68;;;;;;;;;;5094889;28;20040;-88
2023/01/04 00:26:01;;;;;;;12.15;6.72;;;;;;;;;;5094703;28;20052;-88
2023/01/04 00:28:28;;;;;;;9.13;6.72;;;;;;;;;;5094934;28;20131;-89
2023/01/04 00:30:56;;;;;;;7.57;6.80;;;;;;;;;;5094598;28;20496;-89
2023/01/04 00:33:23;;;;;;;8.30;6.25;;;;;;;;;;5094635;28;20058;-88
2023/01/04 00:35:50;;;;;;;8.45;6.32;;;;;;;;;;5094823;28;20544;-89
2023/01/04 00:38:17;;;;;;;9.30;6.00;;;;;;;;;;5094683;28;20052;-89
2023/01/04 00:40:44;;;;;;;20.23;6.70;;;;;;;;;;5094783;28;20529;-91
2023/01/04 00:43:12;;;;;;;15.73;7.78;;;;;;;;;;5094596;28;20052;-88
2023/01/04 00:45:39;;;;;;;7.00;6.07;;;;;;;;;;5094515;28;20056;-89
2023/01/04 00:48:06;;;;;;;9.73;5.75;;;;;;;;;;5094520;28;20071;-88
2023/01/04 00:50:33;;;;;;;8.23;5.47;;;;;;;;;;5094496;28;20074;-88
2023/01/04 00:53:00;;;;;;;7.05;5.20;;;;;;;;;;5094383;28;20117;-88
2023/01/04 00:55:29;;;;;;;6.68;5.95;;;;;;;;;;5094342;28;20060;-88
2023/01/04 00:57:57;;;;;;;7.97;5.40;;;;;;;;;;5094330;28;20415;-88
2023/01/04 01:00:25;;;;;;;9.23;5.57;;;;;;;;;;5094033;28;20389;-86
2023/01/04 01:02:52;;;;;;;6.57;5.20;;;;;;;;;;5094055;28;20055;-88
2023/01/04 01:05:20;;;;;;;8.52;5.55;;;;;;;;;;5093834;28;20507;-86
2023/01/04 01:07:47;;;;;;;5.40;4.90;;;;;;;;;;5094037;28;20058;-87
2023/01/04 01:10:16;;;;;;;6.40;4.88;;;;;;;;;;5094080;28;20048;-88
2023/01/04 01:12:44;;;;;;;6.72;5.10;;;;;;;;;;5093907;28;20048;-86
2023/01/04 01:15:11;;;;;;;4.90;4.38;;;;;;;;;;5093872;28;20055;-90
2023/01/04 01:17:38;;;;;;;5.13;4.72;;;;;;;;;;5093996;28;20047;-88
2023/01/04 01:20:06;;;;;;;4.70;4.28;;;;;;;;;;5093997;28;20044;-88
2023/01/04 01:22:35;;;;;;;6.45;4.68;;;;;;;;;;5093943;28;20047;-88
2023/01/04 01:25:02;;;;;;;4.30;4.00;;;;;;;;;;5093355;28;20054;-87
2023/01/04 01:27:29;;;;;;;5.40;4.85;;;;;;;;;;5093682;28;20044;-86
2023/01/04 01:29:57;;;;;;;4.10;3.80;;;;;;;;;;5093552;28;20496;-88
2023/01/04 01:32:24;;;;;;;4.70;4.30;;;;;;;;;;5093753;28;20126;-86
2023/01/04 01:34:51;;;;;;;5.30;4.40;;;;;;;;;;5093611;28;20500;-88
2023/01/04 01:37:18;;;;;;;6.32;4.45;;;;;;;;;;5094440;28;20048;-87
2023/01/04 01:39:46;;;;;;;5.82;4.10;;;;;;;;;;5093267;28;20139;-88
2023/01/04 01:42:18;;;;;;;4.75;4.10;;;;;;;;;;5093055;28;20044;-88
2023/01/04 01:44:45;;;;;;;6.10;4.50;;;;;;;;;;5093228;28;20052;-88
2023/01/04 01:47:14;;;;;;;6.35;4.38;;;;;;;;;;5093280;28;20373;-88
2023/01/04 01:49:42;;;;;;;12.20;4.32;;;;;;;;;;5093429;28;20051;-87
2023/01/04 01:52:12;;;;;;;7.10;4.50;;;;;;;;;;5093202;28;20048;-88
2023/01/04 01:54:42;;;;;;;7.55;4.53;;;;;;;;;;5093166;28;20054;-87
2023/01/04 01:57:12;;;;;;;5.13;3.95;;;;;;;;;;5093085;28;20393;-87
2023/01/04 01:59:40;;;;;;;5.07;3.75;;;;;;;;;;5093035;28;20469;-87
2023/01/04 02:02:08;;;;;;;4.88;3.78;;;;;;;;;;5093215;28;20052;-89
2023/01/04 02:04:36;;;;;;;7.05;3.65;;;;;;;;;;5093224;28;20048;-88
2023/01/04 02:07:04;;;;;;;5.55;3.67;;;;;;;;;;5092811;28;20058;-88
2023/01/04 02:09:32;;;;;;;4.05;3.50;;;;;;;;;;5092769;28;20062;-88
2023/01/04 02:12:00;;;;;;;7.00;3.90;;;;;;;;;;5092969;28;20048;-87
2023/01/04 02:14:28;;;;;;;5.60;3.83;;;;;;;;;;5092991;28;20058;-88
2023/01/04 02:16:56;;;;;;;6.20;3.40;;;;;;;;;;5092334;28;20489;-91
2023/01/04 02:19:23;;;;;;;3.90;3.40;;;;;;;;;;5092569;28;20496;-87
2023/01/04 02:21:59;;;;;;;5.20;3.53;;;;;;;;;;5092640;28;20058;-89
2023/01/04 02:24:32;;;;;;;4.18;3.65;;;;;;;;;;5092607;28;20048;-86
2023/01/04 02:27:17;;;;;;;3.75;3.45;;;;;;;;;;5092554;28;20427;-88
2023/01/04 02:29:55;;;;;;;5.43;3.47;;;;;;;;;;5092856;28;20044;-87
2023/01/04 02:32:26;;;;;;;3.97;3.50;;;;;;;;;;5092440;28;20055;-86
2023/01/04 02:35:07;;;;;;;4.85;3.10;;;;;;;;;;5092673;28;20058;-86
2023/01/04 02:37:37;;;;;;;3.78;2.80;;;;;;;;;;5092219;28;20400;-88
2023/01/04 02:40:07;;;;;;;4.68;3.03;;;;;;;;;;5092828;28;20498;-86
2023/01/04 02:45:32;;;;;;;4.32;2.97;;;;;;;;;;5093380;28;20109;-87
2023/01/04 02:50:52;;;;;;;3.63;3.00;;;;;;;;;;5093419;28;20044;-88
2023/01/04 02:53:22;;;;;;;4.95;3.05;;;;;;;;;;5092783;28;20070;-88
2023/01/04 02:55:58;;;;;;;3.50;2.47;;;;;;;;;;5092571;28;20093;-86
2023/01/04 02:58:44;;;;;;;5.43;2.78;;;;;;;;;;5092523;28;20048;-88
2023/01/04 03:07:20;;;;;;;4.80;2.70;;;;;;;;;;5081336;28;20079;-87
2023/01/04 03:09:48;;;;;;;3.75;2.90;;;;;;;;;;5092102;28;20407;-89
2023/01/04 03:12:30;;;;;;;5.60;2.90;;;;;;;;;;5092446;28;20492;-87
2023/01/04 03:15:04;;;;;;;6.10;2.80;;;;;;;;;;5092349;28;20140;-88
2023/01/04 03:17:34;;;;;;;2.88;2.67;;;;;;;;;;5092310;28;20048;-88
2023/01/04 03:20:02;;;;;;;4.32;3.10;;;;;;;;;;5092026;28;20058;-88
2023/01/04 03:36:40;;;;;;;5.00;3.80;;;;;;;;;;5092895;28;20062;-87
2023/01/04 03:48:27;;;;;;;6.30;4.63;;;;;;;;;;5093808;28;20526;-87
2023/01/04 03:51:14;;;;;;;8.35;5.00;;;;;;;;;;5095641;28;20139;-88
2023/01/04 03:53:54;;;;;;;7.47;4.90;;;;;;;;;;5095507;28;20523;-87
2023/01/04 03:56:22;;;;;;;5.40;4.40;;;;;;;;;;5095564;28;20477;-87
2023/01/04 03:58:50;;;;;;;6.40;5.28;;;;;;;;;;5095178;28;20051;-88
2023/01/04 04:01:19;;;;;;;8.50;5.80;;;;;;;;;;5095936;28;20047;-87
2023/01/04 04:09:18;;;;;;;8.23;5.18;;;;;;;;;;5099781;28;20134;-87
2023/01/04 04:11:45;;;;;;;7.32;4.78;;;;;;;;;;5095388;28;20435;-87
2023/01/04 04:14:12;;;;;;;6.82;5.00;;;;;;;;;;5095082;28;20062;-89
2023/01/04 04:16:40;;;;;;;5.38;4.47;;;;;;;;;;5094717;28;20052;-88
2023/01/04 04:19:07;;;;;;;5.80;4.85;;;;;;;;;;5095082;28;20097;-88
2023/01/04 04:21:35;;;;;;;5.47;4.65;;;;;;;;;;5095301;28;20052;-89
2023/01/04 04:24:02;;;;;;;6.65;5.10;;;;;;;;;;5095039;28;20555;-88
2023/01/04 04:26:29;;;;;;;5.13;4.55;;;;;;;;;;5094536;28;20056;-87
2023/01/04 04:28:57;;;;;;;7.30;4.68;;;;;;;;;;5094513;28;20044;-89
2023/01/04 04:31:24;;;;;;;5.72;5.13;;;;;;;;;;5095129;28;20143;-89
2023/01/04 04:33:51;;;;;;;9.38;5.32;;;;;;;;;;5094748;28;20044;-87
2023/01/04 04:36:18;;;;;;;5.45;4.80;;;;;;;;;;5094581;28;20046;-86
2023/01/04 04:38:46;;;;;;;5.88;5.18;;;;;;;;;;5094566;28;20047;-88
2023/01/04 04:43:59;;;;;;;8.75;5.07;;;;;;;;;;5095604;28;20040;-88
2023/01/04 04:46:27;;;;;;;6.00;4.95;;;;;;;;;;5094305;28;20048;-88
2023/01/04 04:48:54;;;;;;;5.68;5.18;;;;;;;;;;5094495;28;20147;-89
2023/01/04 04:51:21;;;;;;;7.07;5.53;;;;;;;;;;5094689;28;20443;-90
2023/01/04 04:53:48;;;;;;;6.30;5.07;;;;;;;;;;5094288;28;20048;-88
2023/01/04 04:56:15;;;;;;;6.65;5.20;;;;;;;;;;5094469;28;20510;-88
2023/01/04 04:58:43;;;;;;;6.57;5.68;;;;;;;;;;5094101;28;20047;-87
2023/01/04 05:01:10;;;;;;;5.82;4.90;;;;;;;;;;5094175;28;20048;-88
2023/01/04 05:03:38;;;;;;;7.25;5.15;;;;;;;;;;5094302;28;20068;-88
2023/01/04 05:06:05;;;;;;;7.18;4.82;;;;;;;;;;5093829;28;20058;-87
2023/01/04 05:08:32;;;;;;;9.13;5.35;;;;;;;;;;5094013;28;20051;-88
2023/01/04 05:10:59;;;;;;;7.45;5.18;;;;;;;;;;5093928;28;20142;-88
2023/01/04 05:13:27;;;;;;;5.93;5.30;;;;;;;;;;5094091;28;20127;-88
2023/01/04 05:15:54;;;;;;;5.57;4.82;;;;;;;;;;5093650;28;20055;-89
2023/01/04 05:18:22;;;;;;;5.95;4.78;;;;;;;;;;5093802;28;20048;-88
2023/01/04 05:20:49;;;;;;;5.22;4.75;;;;;;;;;;5093699;28;20054;-87
2023/01/04 05:23:17;;;;;;;5.38;4.88;;;;;;;;;;5094390;28;20055;-88
2023/01/04 05:25:45;;;;;;;6.75;5.28;;;;;;;;;;5093456;28;20052;-88
2023/01/04 05:28:12;;;;;;;5.20;4.80;;;;;;;;;;5093748;28;20056;-88
2023/01/04 05:30:52;;;;;;;5.10;4.60;;;;;;;;;;5093753;28;20050;-88
2023/01/04 05:33:21;;;;;;;6.20;4.60;;;;;;;;;;5093703;28;20052;-87
2023/01/04 05:35:49;;;;;;;6.10;4.60;;;;;;;;;;5093386;28;20067;-87
2023/01/04 05:38:16;;;;;;;5.20;4.70;;;;;;;;;;5093707;28;20040;-88
2023/01/04 05:40:43;;;;;;;4.95;4.22;;;;;;;;;;5093477;28;20054;-89
2023/01/04 05:43:12;;;;;;;5.75;4.50;;;;;;;;;;5093674;28;20507;-88
2023/01/04 05:45:43;;;;;;;5.05;4.13;;;;;;;;;;5093274;28;20052;-88
2023/01/04 05:48:11;;;;;;;4.25;3.90;;;;;;;;;;5093364;28;20044;-87
2023/01/04 05:50:38;;;;;;;4.75;4.35;;;;;;;;;;5093824;28;20054;-89
2023/01/04 05:53:06;;;;;;;5.45;4.30;;;;;;;;;;5093551;28;20047;-89
2023/01/04 05:55:33;;;;;;;4.82;4.38;;;;;;;;;;5093566;28;20048;-88
2023/01/04 05:58:01;;;;;;;4.53;4.13;;;;;;;;;;5093205;28;20127;-87
2023/01/04 06:00:28;;;;;;;22.10;5.53;;;;;;;;;;5093141;28;20407;-87
2023/01/04 06:02:55;;;;;;;7.88;4.55;;;;;;;;;;5093276;28;20048;-89
2023/01/04 06:05:24;;;;;;;5.18;4.47;;;;;;;;;;5093574;28;20420;-87
2023/01/04 06:07:51;;;;;;;7.30;5.07;;;;;;;;;;5093384;28;20052;-87
2023/01/04 06:10:19;;;;;;;6.60;4.90;;;;;;;;;;5092108;28;20139;-88
2023/01/04 06:12:47;;;;;;;6.28;4.88;;;;;;;;;;5092519;28;20054;-88
2023/01/04 06:15:14;;;;;;;8.15;5.47;;;;;;;;;;5093024;28;20066;-89
2023/01/04 06:17:41;;;;;;;6.05;4.72;;;;;;;;;;5092673;28;20137;-87
2023/01/04 06:20:09;;;;;;;6.10;5.43;;;;;;;;;;5092906;28;20086;-88
2023/01/04 06:22:37;;;;;;;8.85;6.15;;;;;;;;;;5092956;28;20397;-87
2023/01/04 06:25:04;;;;;;;6.93;5.75;;;;;;;;;;5092747;28;20054;-89
2023/01/04 06:27:31;;;;;;;7.18;6.47;;;;;;;;;;5092652;28;20044;-89
2023/01/04 06:29:58;;;;;;;5.80;5.30;;;;;;;;;;5092944;28;20062;-88
2023/01/04 06:32:26;;;;;;;7.63;5.55;;;;;;;;;;5092846;28;20051;-88
2023/01/04 06:34:53;;;;;;;6.90;6.20;;;;;;;;;;5092817;28;20055;-86
2023/01/04 06:37:20;;;;;;;7.93;5.13;;;;;;;;;;5092760;28;20056;-89
2023/01/04 06:39:48;;;;;;;6.30;5.07;;;;;;;;;;5092396;28;20139;-86
2023/01/04 06:45:01;;;;;;;7.80;5.07;;;;;;;;;;5093730;28;20136;-88
2023/01/04 06:47:28;;;;;;;5.72;5.22;;;;;;;;;;5092640;28;20054;-89
2023/01/04 06:49:55;;;;;;;5.22;4.72;;;;;;;;;;5092689;28;20040;-87
2023/01/04 06:52:25;;;;;;;6.28;5.10;;;;;;;;;;5092370;28;20085;-86
2023/01/04 06:54:53;;;;;;;8.27;5.72;;;;;;;;;;5092495;28;20135;-86
2023/01/04 06:57:20;;;;;;;5.10;4.65;;;;;;;;;;5092473;28;20397;-88
2023/01/04 06:59:47;;;;;;;5.10;4.60;;;;;;;;;;5092619;28;20503;-87
2023/01/04 07:02:15;;;;;;;4.80;4.40;;;;;;;;;;5092698;28;20082;-87
2023/01/04 07:04:42;;;;;;;4.65;4.25;;;;;;;;;;5092434;28;20052;-88
2023/01/04 07:07:10;;;;;;;4.60;4.05;;;;;;;;;;5092337;28;20047;-87
2023/01/04 07:09:38;;;;;;;7.05;4.88;;;;;;;;;;5092545;28;20050;-87
2023/01/04 07:12:05;;;;;;;5.80;4.15;;;;;;;;;;5092556;28;20048;-88
2023/01/04 07:14:33;;;;;;;4.60;4.30;;;;;;;;;;5092503;28;20048;-85
2023/01/04 07:17:00;;;;;;;5.45;4.18;;;;;;;;;;5092177;28;20056;-87
2023/01/04 07:19:27;;;;;;;4.75;4.20;;;;;;;;;;5092310;28;20044;-86
2023/01/04 07:21:54;;;;;;;4.40;3.90;;;;;;;;;;5093041;28;20389;-87
2023/01/04 07:24:21;;;;;;;4.45;3.50;;;;;;;;;;5096215;28;20048;-87
2023/01/04 07:26:56;;;;;;;4.80;3.28;;;;;;;;;;5095982;28;20058;-89
2023/01/04 07:29:23;;;;;;;4.15;3.60;;;;;;;;;;5094842;28;20484;-87
2023/01/04 07:31:51;;;;;;;3.33;3.03;;;;;;;;;;5094911;28;20052;-87
2023/01/04 07:34:20;;;;;;;4.00;3.20;;;;;;;;;;5095582;28;20048;-87
2023/01/04 07:36:47;;;;;;;3.17;2.97;;;;;;;;;;5095755;28;20063;-86
2023/01/04 07:39:15;;;;;;;3.13;2.83;;;;;;;;;;5095862;28;20093;-89
2023/01/04 07:41:43;;;;;;;3.22;2.92;;;;;;;;;;5096011;28;20048;-87
2023/01/04 07:44:10;;;;;;;3.03;2.83;;;;;;;;;;5095914;28;20055;-87
2023/01/04 07:46:38;;;;;;;2.75;2.55;;;;;;;;;;5095159;28;20065;-87
2023/01/04 07:49:05;;;;;;;3.10;2.90;;;;;;;;;;5095368;28;20052;-87
2023/01/04 07:51:40;;;;;;;2.92;2.72;;;;;;;;;;5097057;28;20114;-87
2023/01/04 07:54:09;;;;;;;2.38;2.17;;;;;;;;;;5098148;28;20058;-86
2023/01/04 07:56:36;;;;;;;2.67;2.38;;;;;;;;;;5095691;28;20066;-86
2023/01/04 07:59:08;;;;;;;2.88;2.67;;;;;;;;;;5094545;28;20048;-87
2023/01/04 08:01:37;;;;;;;4.22;2.90;;;;;;;;;;5095363;28;20062;-87
2023/01/04 08:04:05;;;;;;;2.92;2.72;;;;;;;;;;5095332;28;20094;-87
2023/01/04 08:06:33;;;;;;;2.80;2.70;;;;;;;;;;5095106;28;20048;-86
2023/01/04 08:09:00;;;;;;;2.75;2.35;;;;;;;;;;5095511;28;20052;-86
2023/01/04 08:11:27;;;;;;;2.92;2.42;;;;;;;;;;5095064;28;20058;-86
2023/01/04 08:13:55;;;;;;;3.25;2.40;;;;;;;;;;5094484;28;20058;-88
2023/01/04 08:16:34;;;;;;;2.97;2.60;;;;;;;;;;5094952;28;20060;-87
2023/01/04 08:19:07;;;;;;;3.05;2.40;;;;;;;;;;5094353;28;20085;-87
2023/01/04 08:21:34;;;;;;;2.80;2.60;;;;;;;;;;5094947;28;20054;-86
2023/01/04 08:24:02;;;;;;;3.72;2.63;;;;;;;;;;5094872;28;20098;-86
2023/01/04 08:26:30;;;;;;;2.97;2.70;;;;;;;;;;5096126;28;20577;-86
2023/01/04 08:28:57;;;;;;;2.65;2.28;;;;;;;;;;5095318;28;20093;-88
2023/01/04 08:31:27;;;;;;;2.53;2.33;;;;;;;;;;5096190;28;20048;-86
2023/01/04 08:33:55;;;;;;;2.72;2.30;;;;;;;;;;5095294;28;20048;-88
2023/01/04 08:36:24;;;;;;;3.00;2.70;;;;;;;;;;5095676;28;20101;-89
2023/01/04 08:38:55;;;;;;;4.70;2.60;;;;;;;;;;5096059;28;20060;-87
2023/01/04 08:41:26;;;;;;;2.47;2.38;;;;;;;;;;5095811;28;20064;-87
2023/01/04 08:44:13;;;;;;;4.18;3.03;;;;;;;;;;5095800;28;20056;-87
2023/01/04 08:46:41;;;;;;;2.85;2.65;;;;;;;;;;5096136;28;20051;-86
2023/01/04 08:49:08;;;;;;;2.38;2.28;;;;;;;;;;5095468;28;20127;-87
2023/01/04 08:51:35;;;;;;;2.60;2.40;;;;;;;;;;5094955;28;20058;-86
2023/01/04 08:54:03;;;;;;;2.35;2.20;;;;;;;;;;5094905;28;20072;-86
2023/01/04 08:56:30;;;;;;;3.40;2.22;;;;;;;;;;5095108;28;20079;-86
2023/01/04 08:58:57;;;;;;;2.33;2.13;;;;;;;;;;5095589;28;20052;-86
2023/01/04 09:01:25;;;;;;;2.30;2.13;;;;;;;;;;5095707;28;20067;-87
2023/01/04 09:03:54;;;;;;;2.13;2.03;;;;;;;;;;5094672;28;20082;-86
2023/01/04 09:06:21;;;;;;;2.35;2.25;;;;;;;;;;5095066;28;20048;-87
2023/01/04 09:08:49;;;;;;;2.40;2.30;;;;;;;;;;5094184;28;20488;-87
2023/01/04 09:11:17;;;;;;;2.05;1.95;;;;;;;;;;5093073;28;20055;-87
2023/01/04 09:13:45;;;;;;;3.20;2.10;;;;;;;;;;5093633;28;20071;-86
2023/01/04 09:16:13;;;;;;;2.63;2.40;;;;;;;;;;5093350;28;20052;-86
2023/01/04 09:18:40;;;;;;;2.53;2.33;;;;;;;;;;5093559;28;20052;-87
2023/01/04 09:21:09;;;;;;;2.00;1.90;;;;;;;;;;5093558;28;20138;-87
2023/01/04 09:23:37;;;;;;;2.30;2.10;;;;;;;;;;5093300;28;20048;-87
2023/01/04 09:26:05;;;;;;;2.45;2.25;;;;;;;;;;5093141;28;20050;-88
2023/01/04 09:28:35;;;;;;;2.38;2.17;;;;;;;;;;5093270;28;20052;-87
2023/01/04 09:31:11;;;;;;;2.67;2.47;;;;;;;;;;5093567;28;20055;-86
2023/01/04 09:33:38;;;;;;;2.78;2.55;;;;;;;;;;5093849;28;20058;-86
2023/01/04 09:36:25;;;;;;;2.63;2.42;;;;;;;;;;5094321;28;20047;-87
2023/01/04 09:38:52;;;;;;;5.40;3.38;;;;;;;;;;5093253;28;20044;-86
2023/01/04 09:41:23;;;;;;;4.38;2.85;;;;;;;;;;5093251;28;20076;-87
2023/01/04 09:43:51;;;;;;;3.88;2.90;;;;;;;;;;5094541;28;20048;-86
2023/01/04 09:46:25;;;;;;;3.78;3.22;;;;;;;;;;5092525;28;20131;-87
2023/01/04 09:48:55;;;;;;;3.53;2.90;;;;;;;;;;5093222;28;20048;-87
2023/01/04 09:51:24;;;;;;;3.47;2.80;;;;;;;;;;5093528;28;20047;-86
2023/01/04 09:53:55;;;;;;;3.08;2.75;;;;;;;;;;5092864;28;20059;-86
2023/01/04 09:56:27;;;;;;;3.22;2.55;;;;;;;;;;5093269;28;20058;-87
2023/01/04 09:58:56;;;;;;;2.88;2.63;;;;;;;;;;5092362;28;20048;-87
2023/01/04 10:01:28;;;;;;;2.70;2.50;;;;;;;;;;5092641;28;20135;-87
2023/01/04 10:04:06;;;;;;;3.28;2.75;;;;;;;;;;5093000;28;20079;-87
2023/01/04 10:06:34;;;;;;;3.03;2.78;;;;;;;;;;5093014;28;20086;-87
2023/01/04 10:09:03;;;;;;;2.63;2.42;;;;;;;;;;5093562;28;20449;-87
2023/01/04 10:11:39;;;;;;;2.78;2.58;;;;;;;;;;5093106;28;20138;-87
2023/01/04 10:14:26;;;;;;;5.78;2.47;;;;;;;;;;5092246;28;20059;-87
2023/01/04 10:17:08;;;;;;;3.17;2.95;;;;;;;;;;5092242;28;20411;-86
2023/01/04 10:19:47;;;;;;;2.45;2.28;;;;;;;;;;5093026;28;20056;-88
2023/01/04 10:22:44;;;;;;;2.50;2.25;;;;;;;;;;5092841;28;20553;-87
2023/01/04 10:25:14;;;;;;;5.88;2.63;;;;;;;;;;5092876;28;20078;-86
2023/01/04 10:27:53;;;;;;;2.90;2.70;;;;;;;;;;5092905;28;20492;-88
2023/01/04 10:30:25;;;;;;;2.83;2.63;;;;;;;;;;5092706;28;20043;-88
2023/01/04 10:33:01;;;;;;;6.63;2.15;;;;;;;;;;5092734;28;20131;-86
2023/01/04 10:35:29;;;;;;;2.05;1.77;;;;;;;;;;5092625;28;20043;-87
2023/01/04 10:38:00;;;;;;;2.33;2.20;;;;;;;;;;5092550;28;20045;-86
2023/01/04 10:40:28;;;;;;;2.72;2.35;;;;;;;;;;5092960;28;20079;-88
2023/01/04 10:42:56;;;;;;;2.13;1.98;;;;;;;;;;5093016;28;20074;-86
2023/01/04 10:45:32;;;;;;;1.88;1.77;;;;;;;;;;5092709;28;20058;-87
2023/01/04 10:48:01;;;;;;;1.85;1.75;;;;;;;;;;5091932;28;20052;-87
2023/01/04 10:50:48;;;;;;;2.35;2.15;;;;;;;;;;5092634;28;20135;-86
2023/01/04 10:53:20;;;;;;;2.08;1.90;;;;;;;;;;5072765;28;20044;-87
2023/01/04 10:55:47;;;;;;;1.70;1.60;;;;;;;;;;5091963;28;20058;-86
2023/01/04 10:58:38;;;;;;;3.15;2.20;;;;;;;;;;5095713;28;20051;-86
2023/01/04 11:01:13;;;;;;;2.15;1.75;;;;;;;;;;5096473;28;20135;-86
2023/01/04 11:03:50;;;;;;;2.38;1.70;;;;;;;;;;5096702;28;20047;-87
2023/01/04 11:06:29;;;;;;;1.38;1.33;;;;;;;;;;5097424;28;20044;-87
2023/01/04 11:09:02;;;;;;;1.23;1.20;;;;;;;;;;5096061;28;20131;-86
2023/01/04 11:11:35;;;;;;;1.52;1.42;;;;;;;;;;5096179;28;20138;-88
2023/01/04 11:14:03;;;;;;;1.00;1.00;;;;;;;;;;5096209;28;20052;-86
2023/01/04 11:16:31;;;;;;;1.33;1.23;;;;;;;;;;5095875;28;20074;-86
2023/01/04 11:18:58;;;;;;;1.27;1.08;;;;;;;;;;5096382;28;20436;-87
2023/01/04 11:21:28;;;;;;;1.58;1.27;;;;;;;;;;5095815;28;20056;-86
2023/01/04 11:23:59;;;;;;;1.77;1.23;;;;;;;;;;5096206;28;20060;-86
2023/01/04 11:26:48;;;;;;;2.55;1.30;;;;;;;;;;5095935;28;20046;-86
2023/01/04 11:29:33;;;;;;;1.38;1.10;;;;;;;;;;5095895;28;20140;-88
2023/01/04 11:32:05;;;;;;;1.80;1.33;;;;;;;;;;5095848;28;20139;-87
2023/01/04 11:34:53;;;;;;;2.38;1.23;;;;;;;;;;5095821;28;20052;-88
2023/01/04 11:37:32;;;;;;;1.60;1.20;;;;;;;;;;5095660;28;20408;-86
2023/01/04 11:40:18;;;;;;;1.27;1.20;;;;;;;;;;5095666;28;20131;-88
2023/01/04 11:42:46;;;;;;;3.38;1.20;;;;;;;;;;5095986;28;20439;-86
2023/01/04 11:45:17;;;;;;;1.38;1.38;;;;;;;;;;5095907;28;20067;-88
2023/01/04 11:47:49;;;;;;;1.75;1.50;;;;;;;;;;5095655;28;20147;-87
2023/01/04 11:50:32;;;;;;;1.20;1.13;;;;;;;;;;5095459;28;20048;-88
2023/01/04 11:53:00;;;;;;;1.20;1.10;;;;;;;;;;5095699;28;20048;-86
2023/01/04 11:55:28;;;;;;;1.20;1.02;;;;;;;;;;5095109;28;20044;-87
2023/01/04 11:58:05;;;;;;;1.70;1.27;;;;;;;;;;5095326;28;20152;-87
2023/01/04 12:00:33;;;;;;;4.13;1.65;;;;;;;;;;5095357;28;20050;-87
2023/01/04 12:03:10;;;;;;;1.48;1.20;;;;;;;;;;5094882;28;20079;-87
2023/01/04 12:05:38;;;;;;;1.50;1.40;;;;;;;;;;5095132;28;20063;-86
2023/01/04 12:08:05;;;;;;;1.02;1.00;;;;;;;;;;5094309;28;20044;-87
2023/01/04 12:10:33;;;;;;;1.17;1.05;;;;;;;;;;5094902;28;20466;-86
2023/01/04 12:13:01;;;;;;;1.05;1.05;;;;;;;;;;5095256;28;20044;-86
2023/01/04 12:15:36;;;;;;;2.28;1.10;;;;;;;;;;5094395;28;20481;-86
2023/01/04 12:18:06;;;;;;;1.38;0.85;;;;;;;;;;5095185;28;20058;-87
2023/01/04 12:20:33;;;;;;;1.40;1.23;;;;;;;;;;5094714;28;20048;-87
2023/01/04 12:23:00;;;;;;;2.95;1.17;;;;;;;;;;5095184;28;20190;-86
2023/01/04 12:25:34;;;;;;;1.73;1.00;;;;;;;;;;5094713;28;20059;-86
2023/01/04 12:28:01;;;;;;;3.35;0.90;;;;;;;;;;5094782;28;20135;-86
2023/01/04 12:30:43;;;;;;;1.42;1.10;;;;;;;;;;5094810;28;20036;-86
2023/01/04 12:33:33;;;;;;;0.80;0.80;;;;;;;;;;5094820;28;20048;-86
2023/01/04 12:36:02;;;;;;;1.58;0.77;;;;;;;;;;5094294;28;20055;-86
2023/01/04 12:38:48;;;;;;;1.85;1.10;;;;;;;;;;5074089;28;20458;-86
2023/01/04 12:41:15;;;;;;;1.30;0.90;;;;;;;;;;5075430;28;20127;-88
2023/01/04 12:43:45;;;;;;;0.90;0.88;;;;;;;;;;5074434;28;20493;-86
2023/01/04 12:49:26;;;;;;;2.30;0.70;;;;;;;;;;5075272;28;20470;-87
2023/01/04 12:52:12;;;;;;;0.82;0.82;;;;;;;;;;5074217;28;20076;-86
2023/01/04 12:55:01;;;;;;;1.13;0.47;;;;;;;;;;5073886;28;20526;-85
2023/01/04 12:57:35;;;;;;;1.42;0.60;;;;;;;;;;5083818;28;20039;-87
2023/01/04 13:00:08;;;;;;;1.80;0.73;;;;;;;;;;5090653;28;20047;-86
2023/01/04 13:02:42;;;;;;;0.98;0.68;;;;;;;;;;5092868;28;20049;-87
2023/01/04 13:05:16;;;;;;;0.85;0.30;;;;;;;;;;5091266;28;20052;-86
2023/01/04 13:08:09;;;;;;;0.45;0.45;;;;;;;;;;5090261;28;20450;-87
2023/01/04 13:10:37;;;;;;;0.60;0.60;;;;;;;;;;5094064;28;20080;-86
2023/01/04 13:13:24;;;;;;;0.80;0.60;;;;;;;;;;5090525;28;20139;-87
2023/01/04 13:16:10;;;;;;;0.88;0.50;;;;;;;;;;5090605;28;20463;-86
2023/01/04 13:18:39;;;;;;;0.50;0.50;;;;;;;;;;5092218;28;20054;-86
2023/01/04 13:21:11;;;;;;;3.58;0.73;;;;;;;;;;5092585;28;20050;-86
2023/01/04 13:23:39;;;;;;;1.65;0.77;;;;;;;;;;5092490;28;20047;-87
2023/01/04 13:26:37;;;;;;;1.17;0.40;;;;;;;;;;5092058;28;20047;-87
2023/01/04 13:29:08;;;;;;;1.55;0.60;;;;;;;;;;5076193;28;20150;-87
2023/01/04 13:31:46;;;;;;;0.60;0.60;;;;;;;;;;5092155;28;20203;-89
2023/01/04 13:34:20;;;;;;;0.70;0.70;;;;;;;;;;5090781;28;20066;-89
2023/01/04 13:37:02;;;;;;;0.98;0.50;;;;;;;;;;5090494;28;20404;-87
2023/01/04 13:39:29;;;;;;;1.55;0.88;;;;;;;;;;5093755;28;20048;-92
2023/01/04 13:41:57;;;;;;;1.63;0.70;;;;;;;;;;5093468;28;20052;-88
2023/01/04 13:44:44;;;;;;;0.85;0.60;;;;;;;;;;5093557;28;20044;-87
2023/01/04 13:47:35;;;;;;;1.45;0.70;;;;;;;;;;5093645;28;20048;-87
2023/01/04 13:50:02;;;;;;;1.58;0.70;;;;;;;;;;5093235;28;20066;-86
2023/01/04 13:52:29;;;;;;;0.93;0.82;;;;;;;;;;5093497;28;20058;-88
2023/01/04 13:55:17;;;;;;;0.40;0.40;;;;;;;;;;5093069;28;20059;-89
2023/01/04 13:57:58;;;;;;;1.05;0.65;;;;;;;;;;5092840;28;20056;-86
2023/01/04 14:00:26;;;;;;;2.25;0.98;;;;;;;;;;5092292;28;20048;-86
2023/01/04 14:03:16;;;;;;;1.95;0.68;;;;;;;;;;5091985;28;20056;-88
2023/01/04 14:05:45;;;;;;;0.60;0.60;;;;;;;;;;5092987;28;20098;-89
2023/01/04 14:08:14;;;;;;;1.65;1.00;;;;;;;;;;5092518;28;20102;-87
2023/01/04 14:10:43;;;;;;;0.80;0.40;;;;;;;;;;5093096;28;20123;-89
2023/01/04 14:13:15;;;;;;;0.75;0.60;;;;;;;;;;5092932;28;20057;-89
2023/01/04 14:15:45;;;;;;;1.03;0.40;;;;;;;;;;5092606;28;20048;-86
2023/01/04 14:18:26;;;;;;;1.00;0.40;;;;;;;;;;5092992;28;20048;-86
2023/01/04 14:20:56;;;;;;;0.43;0.43;;;;;;;;;;5092766;28;20052;-85
2023/01/04 14:23:28;;;;;;;1.42;0.60;;;;;;;;;;5093121;28;20052;-84
2023/01/04 14:25:55;;;;;;;1.05;0.80;;;;;;;;;;5092561;28;20095;-87
2023/01/04 14:28:28;;;;;;;0.55;0.55;;;;;;;;;;5092329;28;20052;-86
2023/01/04 14:30:58;;;;;;;1.53;1.13;;;;;;;;;;5092328;28;20055;-86
2023/01/04 14:33:38;;;;;;;0.88;0.43;;;;;;;;;;5092162;28;20603;-88
2023/01/04 14:36:06;;;;;;;0.40;0.40;;;;;;;;;;5092499;28;20442;-87
2023/01/04 14:38:37;;;;;;;0.77;0.60;;;;;;;;;;5092403;28;20139;-86
2023/01/04 14:41:11;;;;;;;0.75;0.22;;;;;;;;;;5092608;28;20055;-87
2023/01/04 14:43:46;;;;;;;0.30;0.30;;;;;;;;;;5092827;28;20048;-86
2023/01/04 14:46:13;;;;;;;0.20;0.20;;;;;;;;;;5092689;28;20056;-86
2023/01/04 14:48:41;;;;;;;0.85;0.28;;;;;;;;;;5092512;28;20079;-87
2023/01/04 14:51:08;;;;;;;0.30;0.30;;;;;;;;;;5092780;28;20484;-87
2023/01/04 14:53:35;;;;;;;0.20;0.20;;;;;;;;;;5092243;28;20074;-87
2023/01/04 14:56:05;;;;;;;0.30;0.30;;;;;;;;;;5092330;28;20041;-88
2023/01/04 14:58:32;;;;;;;0.52;0.20;;;;;;;;;;5092490;28;20442;-87
2023/01/04 15:00:59;;;;;;;0.40;0.40;;;;;;;;;;5092371;28;20044;-86
2023/01/04 15:03:27;;;;;;;0.30;0.30;;;;;;;;;;5092657;28;20059;-88
2023/01/04 15:05:54;;;;;;;0.20;0.10;;;;;;;;;;5092329;28;20052;-86
2023/01/04 15:08:21;;;;;;;1.10;0.45;;;;;;;;;;5092882;28;20502;-87
2023/01/04 15:10:49;;;;;;;0.25;0.25;;;;;;;;;;5092756;28;20144;-89
2023/01/04 15:13:23;;;;;;;0.88;0.70;;;;;;;;;;5092458;28;20485;-85
2023/01/04 15:15:51;;;;;;;0.20;0.20;;;;;;;;;;5093298;28;20121;-87
2023/01/04 15:18:18;;;;;;;0.93;0.60;;;;;;;;;;5092648;28;20068;-87
2023/01/04 15:20:45;;;;;;;0.15;0.15;;;;;;;;;;5093038;28;20055;-86
2023/01/04 15:23:12;;;;;;;0.25;0.25;;;;;;;;;;5100331;28;20485;-86
2023/01/04 15:25:40;;;;;;;0.20;0.20;;;;;;;;;;5092490;28;20048;-87
2023/01/04 15:28:07;;;;;;;1.08;0.40;;;;;;;;;;5092656;28;20044;-89
2023/01/04 15:30:36;;;;;;;0.30;0.30;;;;;;;;;;5092983;28;20052;-89
2023/01/04 15:33:03;;;;;;;0.50;0.50;;;;;;;;;;5093366;28;20051;-89
2023/01/04 15:35:31;;;;;;;0.47;0.47;;;;;;;;;;5092022;28;20056;-86
2023/01/04 15:37:58;;;;;;;0.30;0.25;;;;;;;;;;5092347;28;20052;-86
2023/01/04 15:40:34;;;;;;;0.40;0.40;;;;;;;;;;5091393;28;20043;-87
2023/01/04 15:43:02;;;;;;;0.35;0.35;;;;;;;;;;5092984;28;20048;-88
2023/01/04 15:45:37;;;;;;;0.30;0.30;;;;;;;;;;5096013;28;20058;-90
2023/01/04 15:48:05;;;;;;;0.35;0.35;;;;;;;;;;5096438;28;20076;-85
2023/01/04 15:50:36;;;;;;;0.40;0.40;;;;;;;;;;5096596;28;20485;-85
2023/01/04 15:53:04;;;;;;;0.60;0.60;;;;;;;;;;5095403;28;20401;-87